Weather History for Georgetown, SC

Change the Weather History Date:

Sunday, November 18, 2012

  Actual Average Record
Temperature  
Mean Temperature 50 °F -  
Max Temperature 53 °F 70 °F 82 °F (2013)
Min Temperature 46 °F 45 °F 33 °F (2010)
Degree Days  
Heating Degree Days 16    
Moisture  
Dew Point 50 °F    
Average Humidity 98    
Maximum Humidity 100    
Minimum Humidity 82    
Precipitation  
Precipitation 0.93 in - - ()
Sea Level Pressure  
Sea Level Pressure 30.23 in    
Wind  
Wind Speed 12 mph (North)    
Max Wind Speed 20 mph    
Max Gust Speed 29 mph    
Visibility 9 miles    
Events Rain , Thunderstorm    
Averages and records for this station are not official NWS values.
T = Trace of Precipitation, MM = Missing Value Source: NWS Daily Summary

Daily Weather History Graph

Daily Weather History Graph

Search for Another Location

Airport:

Trip Planner

Search our weather history database for the weather conditions in past years. The results will help you decide how hot, cold, wet, or windy it might be!

Date:

Astronomy

Nov. 18, 2012 Rise Set
Actual Time 6:51 AM EST 5:13 PM EST
Civil Twilight 6:25 AM EST 5:39 PM EST
Nautical Twilight 5:55 AM EST 6:09 PM EST
Astronomical Twilight 5:25 AM EST 6:39 PM EST
Moon 11:20 AM EST (11/18) 10:26 PM EST (11/18)
Length of Visible Light 11h 14m
Length of Day
10h 21m
Waxing Crescent, 30% of the Moon is Illuminated
Nov 18
Waxing Crescent
Nov 20
First Quarter
Nov 28
Full
Dec 6
Last Quarter
Dec 13
New

Hourly Weather History & Observations

Time (EST) Temp. Windchill Dew Point Humidity Pressure Visibility Wind Dir Wind Speed Gust Speed Precip Events Conditions
12:35 AM 51.8 °F - 46.4 °F 82% 30.30 in 10.0 mi North 8.1 mph - N/A   Mostly Cloudy
12:55 AM 51.8 °F - 46.4 °F 82% 30.30 in 10.0 mi North 10.4 mph - N/A   Mostly Cloudy
1:15 AM 51.8 °F - 46.4 °F 82% 30.30 in 10.0 mi North 11.5 mph - N/A   Overcast
1:35 AM 51.8 °F - 46.4 °F 82% 30.29 in 10.0 mi North 11.5 mph - N/A   Light Drizzle
1:55 AM 51.8 °F - 46.4 °F 82% 30.28 in 10.0 mi North 10.4 mph 16.1 mph N/A   Overcast
2:15 AM 51.8 °F - 46.4 °F 82% 30.27 in 10.0 mi North 13.8 mph 19.6 mph N/A   Overcast
2:35 AM 51.8 °F - 46.4 °F 82% 30.28 in 10.0 mi North 11.5 mph - N/A   Overcast
2:55 AM 51.8 °F - 46.4 °F 82% 30.29 in 10.0 mi North 10.4 mph 18.4 mph N/A   Overcast
3:15 AM 50.0 °F - 48.2 °F 94% 30.29 in 10.0 mi North 10.4 mph 16.1 mph N/A Rain Light Rain
3:35 AM 50.0 °F - 50.0 °F 100% 30.28 in 10.0 mi North 10.4 mph 16.1 mph 0.01 in Rain Light Rain
3:55 AM 50.0 °F - 50.0 °F 100% 30.28 in 10.0 mi North 9.2 mph - 0.02 in Rain Light Rain
4:15 AM 48.2 °F - 48.2 °F 100% 30.27 in 10.0 mi North 10.4 mph - 0.01 in Rain Light Rain
4:35 AM 48.2 °F - 48.2 °F 100% 30.27 in 10.0 mi North 11.5 mph - 0.03 in Rain Light Rain
4:55 AM 48.2 °F - 48.2 °F 100% 30.27 in 10.0 mi North 9.2 mph - 0.06 in Rain Light Rain
5:15 AM 48.2 °F - 48.2 °F 100% 30.27 in 10.0 mi North 10.4 mph - 0.02 in Rain Rain
5:35 AM 46.4 °F 41.5 °F 46.4 °F 100% 30.27 in 10.0 mi North 10.4 mph 16.1 mph 0.03 in Rain Rain
6:15 AM 46.4 °F 41.5 °F 46.4 °F 100% 30.27 in 10.0 mi North 10.4 mph 16.1 mph 0.01 in Rain Light Rain
6:35 AM 46.4 °F 41.5 °F 46.4 °F 100% 30.28 in 10.0 mi North 10.4 mph 17.3 mph 0.02 in Rain Light Rain
6:55 AM 46.4 °F 41.1 °F 46.4 °F 100% 30.28 in 10.0 mi North 11.5 mph 16.1 mph 0.04 in Rain Rain
7:15 AM 46.4 °F 41.9 °F 46.4 °F 100% 30.28 in 7.0 mi NNW 9.2 mph - 0.02 in Rain Rain
7:35 AM 48.2 °F - 48.2 °F 100% 30.28 in 7.0 mi North 12.7 mph 19.6 mph 0.06 in Rain Heavy Rain
7:55 AM 48.2 °F - 48.2 °F 100% 30.28 in 7.0 mi NNW 12.7 mph 20.7 mph 0.12 in Rain Rain
8:15 AM 48.2 °F - 48.2 °F 100% 30.28 in 5.0 mi North 12.7 mph 18.4 mph 0.05 in Rain Heavy Rain
8:35 AM 48.2 °F - 48.2 °F 100% 30.28 in 5.0 mi NNW 15.0 mph 20.7 mph 0.12 in Rain Rain
8:55 AM 48.2 °F - 48.2 °F 100% 30.28 in 5.0 mi NNW 13.8 mph 20.7 mph 0.16 in Rain Rain
9:15 AM 48.2 °F - 48.2 °F 100% 30.26 in 5.0 mi NNW 13.8 mph 23.0 mph 0.04 in Rain Rain
9:35 AM 50.0 °F - 50.0 °F 100% 30.25 in 7.0 mi NNW 13.8 mph 20.7 mph 0.07 in Rain Rain
9:55 AM 50.0 °F - 50.0 °F 100% 30.25 in 7.0 mi NNW 17.3 mph 23.0 mph 0.09 in Rain Rain
10:15 AM 50.0 °F - 50.0 °F 100% 30.25 in 5.0 mi North 13.8 mph 18.4 mph 0.04 in Rain Heavy Rain
10:35 AM 50.0 °F - 50.0 °F 100% 30.25 in 5.0 mi North 12.7 mph 20.7 mph 0.14 in Rain Heavy Rain
10:55 AM 50.0 °F - 50.0 °F 100% 30.25 in 7.0 mi North 16.1 mph 20.7 mph 0.20 in Rain Rain
11:15 AM 51.8 °F - 51.8 °F 100% 30.24 in 10.0 mi North 12.7 mph 20.7 mph 0.01 in Rain Light Rain
11:55 AM 51.8 °F - 51.8 °F 100% 30.22 in 10.0 mi North 16.1 mph 24.2 mph 0.04 in Rain Rain
12:15 PM 51.8 °F - 51.8 °F 100% 30.21 in 5.0 mi North 18.4 mph 24.2 mph 0.02 in Rain Light Rain
12:35 PM 51.8 °F - 51.8 °F 100% 30.21 in 7.0 mi North 16.1 mph 19.6 mph 0.03 in Rain Rain
1:15 PM 51.8 °F - 51.8 °F 100% 30.19 in 10.0 mi North 15.0 mph 21.9 mph 0.01 in Rain Light Rain
1:35 PM 51.8 °F - 51.8 °F 100% 30.19 in 7.0 mi North 16.1 mph 20.7 mph 0.03 in Rain Rain
2:15 PM 51.8 °F - 51.8 °F 100% 30.17 in 5.0 mi North 16.1 mph 25.3 mph 0.03 in Rain Rain
2:35 PM 51.8 °F - 51.8 °F 100% 30.17 in 7.0 mi North 16.1 mph 25.3 mph 0.06 in Rain Rain
2:55 PM 51.8 °F - 51.8 °F 100% 30.18 in 10.0 mi North 17.3 mph 21.9 mph 0.07 in Rain Light Rain
3:15 PM 51.8 °F - 51.8 °F 100% 30.18 in 10.0 mi North 16.1 mph 23.0 mph N/A   Overcast
3:55 PM 51.8 °F - 51.8 °F 100% 30.16 in 10.0 mi North 19.6 mph 26.5 mph 0.02 in Rain Light Rain
4:15 PM 51.8 °F - 51.8 °F 100% 30.17 in 10.0 mi North 17.3 mph 23.0 mph N/A   Overcast
4:35 PM 51.8 °F - 51.8 °F 100% 30.18 in 10.0 mi North 15.0 mph 24.2 mph N/A Rain Light Rain
4:55 PM 51.8 °F - 51.8 °F 100% 30.17 in 7.0 mi North 12.7 mph 23.0 mph N/A Rain Light Rain
5:15 PM 53.6 °F - 53.6 °F 100% 30.18 in 7.0 mi North 18.4 mph 28.8 mph N/A Rain Rain
5:35 PM 53.6 °F - 53.6 °F 100% 30.17 in 7.0 mi North 17.3 mph 26.5 mph 0.01 in Rain Light Rain
5:55 PM 53.6 °F - 53.6 °F 100% 30.17 in 7.0 mi North 15.0 mph 23.0 mph 0.02 in Rain Light Rain
6:15 PM 53.6 °F - 53.6 °F 100% 30.19 in 7.0 mi North 15.0 mph 25.3 mph N/A Rain Rain
6:55 PM 53.6 °F - 53.6 °F 100% 30.19 in 10.0 mi North 15.0 mph - N/A   Overcast
7:15 PM 53.6 °F - 53.6 °F 100% 30.19 in 10.0 mi North 16.1 mph 25.3 mph N/A   Overcast
7:35 PM 53.6 °F - 53.6 °F 100% 30.19 in 10.0 mi North 16.1 mph 20.7 mph N/A Thunderstorm Overcast
7:55 PM 53.6 °F - 53.6 °F 100% 30.19 in 10.0 mi North 15.0 mph 20.7 mph N/A   Overcast
8:15 PM 53.6 °F - 53.6 °F 100% 30.19 in 10.0 mi North 17.3 mph 23.0 mph N/A   Overcast
8:55 PM 53.6 °F - 53.6 °F 100% 30.20 in 10.0 mi North 11.5 mph 21.9 mph N/A   Overcast
9:15 PM 53.6 °F - 53.6 °F 100% 30.20 in 10.0 mi North 10.4 mph 23.0 mph N/A   Overcast
9:35 PM 53.6 °F - 53.6 °F 100% 30.20 in 10.0 mi North 16.1 mph 23.0 mph N/A   Overcast
9:55 PM 53.6 °F - 53.6 °F 100% 30.19 in 10.0 mi North 13.8 mph 19.6 mph N/A   Overcast
10:15 PM 53.6 °F - 53.6 °F 100% 30.19 in 10.0 mi North 12.7 mph 20.7 mph N/A   Overcast
10:35 PM 53.6 °F - 53.6 °F 100% 30.19 in 10.0 mi North 13.8 mph 23.0 mph N/A   Overcast
10:55 PM 53.6 °F - 53.6 °F 100% 30.19 in 10.0 mi North 16.1 mph 24.2 mph N/A   Overcast
11:15 PM 53.6 °F - 53.6 °F 100% 30.18 in 10.0 mi North 16.1 mph 23.0 mph N/A   Overcast
11:35 PM 53.6 °F - 53.6 °F 100% 30.18 in 10.0 mi North 16.1 mph 21.9 mph N/A   Overcast
11:55 PM 53.6 °F - 53.6 °F 100% 30.19 in 10.0 mi North 13.8 mph 21.9 mph N/A   Overcast